createdAt,value
2019-04-04T00:03:01.782Z,23.83
2019-04-04T00:06:03.735Z,23.43
2019-04-04T00:09:09.046Z,23.17
2019-04-04T00:12:10.949Z,23.47
2019-04-04T00:15:14.765Z,22.50
2019-04-04T00:18:16.870Z,22.80
2019-04-04T00:21:18.870Z,24.33
2019-04-04T00:24:20.989Z,21.43
2019-04-04T00:27:22.997Z,24.23
2019-04-04T00:30:24.907Z,25.20
2019-04-04T00:33:26.850Z,26.70
2019-04-04T00:36:28.802Z,24.10
2019-04-04T00:39:31.785Z,25.03
2019-04-04T00:42:33.760Z,27.40
2019-04-04T00:45:35.671Z,29.97
2019-04-04T00:48:37.715Z,26.37
2019-04-04T00:51:39.669Z,28.50
2019-04-04T00:54:44.640Z,28.90
2019-04-04T00:57:45.673Z,28.47
2019-04-04T01:00:47.627Z,28.57
2019-04-04T01:03:49.554Z,28.13
2019-04-04T01:06:51.511Z,28.10
2019-04-04T01:09:53.427Z,28.40
2019-04-04T01:12:55.404Z,28.63
2019-04-04T01:15:57.311Z,27.37
2019-04-04T01:18:59.629Z,25.40
2019-04-04T01:22:01.560Z,28.03
2019-04-04T01:25:05.473Z,27.73
2019-04-04T01:28:08.121Z,27.90
2019-04-04T01:31:10.749Z,29.10
2019-04-04T01:34:12.674Z,25.03
2019-04-04T01:37:14.637Z,27.87
2019-04-04T01:40:16.779Z,27.33
2019-04-04T01:43:18.720Z,26.27
2019-04-04T01:46:20.687Z,27.63
2019-04-04T01:49:22.669Z,27.80
2019-04-04T01:52:27.734Z,28.70
2019-04-04T01:55:30.505Z,29.00
2019-04-04T01:58:32.456Z,28.33
2019-04-04T02:01:34.391Z,27.70
2019-04-04T02:04:36.364Z,27.97
2019-04-04T02:07:38.317Z,28.93
2019-04-04T02:10:41.474Z,27.37
2019-04-04T02:13:43.447Z,27.13
2019-04-04T02:16:48.511Z,30.00
2019-04-04T02:19:49.353Z,25.57
2019-04-04T02:22:51.652Z,28.03
2019-04-04T02:25:54.663Z,30.77
2019-04-04T02:28:56.604Z,32.17
2019-04-04T02:32:03.076Z,34.47
2019-04-04T02:35:10.306Z,30.33
2019-04-04T02:38:10.923Z,26.53
2019-04-04T02:41:15.539Z,30.77
2019-04-04T02:44:17.110Z,28.97
2019-04-04T02:47:19.087Z,28.30
2019-04-04T02:50:21.085Z,28.67
2019-04-04T02:53:22.995Z,27.63
2019-04-04T02:56:24.915Z,27.40
2019-04-04T02:59:26.861Z,26.10
2019-04-04T03:02:28.864Z,27.10
2019-04-04T03:05:30.924Z,25.80
2019-04-04T03:08:36.550Z,26.30
2019-04-04T03:11:37.748Z,26.40
2019-04-04T03:14:39.663Z,27.07
2019-04-04T03:17:41.665Z,25.93
2019-04-04T03:20:43.810Z,25.00
2019-04-04T03:23:45.780Z,24.93
2019-04-04T03:26:52.298Z,22.30
2019-04-04T03:29:51.545Z,23.03
2019-04-04T03:32:54.967Z,21.47
2019-04-04T03:36:00.130Z,25.63
2019-04-04T03:39:01.401Z,25.77
2019-04-04T03:42:06.959Z,22.57
2019-04-04T03:45:07.336Z,21.80
2019-04-04T03:48:09.260Z,23.67
2019-04-04T03:51:11.275Z,26.77
2019-04-04T03:54:15.147Z,24.90
2019-04-04T03:57:17.355Z,23.77
2019-04-04T04:00:29.541Z,24.33
2019-04-04T04:03:31.574Z,23.90
2019-04-04T04:06:33.516Z,23.03
2019-04-04T04:09:36.838Z,24.80
2019-04-04T04:12:42.599Z,24.73
2019-04-04T04:15:42.728Z,25.73
2019-04-04T04:18:44.686Z,23.83
2019-04-04T04:21:46.802Z,24.50
2019-04-04T04:24:48.715Z,23.97
2019-04-04T04:27:50.784Z,27.43
2019-04-04T04:30:52.828Z,24.17
2019-04-04T04:33:54.926Z,25.37
2019-04-04T04:36:56.876Z,26.30
2019-04-04T04:39:58.838Z,25.13
2019-04-04T04:43:00.999Z,26.47
2019-04-04T04:46:03.115Z,26.97
2019-04-04T04:49:05.060Z,25.50
2019-04-04T04:52:07.080Z,26.20
2019-04-04T04:55:12.018Z,25.30
2019-04-04T04:58:16.105Z,24.67
2019-04-04T05:01:19.031Z,21.93
2019-04-04T05:04:21.385Z,24.40
2019-04-04T05:07:23.491Z,26.27
2019-04-04T05:10:25.525Z,24.03
2019-04-04T05:13:28.869Z,21.77
2019-04-04T05:16:31.428Z,20.63
2019-04-04T05:19:33.423Z,21.83
2019-04-04T05:22:35.674Z,20.33
2019-04-04T05:25:51.673Z,21.17
2019-04-04T05:28:42.119Z,19.83
2019-04-04T05:31:44.759Z,20.57
2019-04-04T05:34:46.700Z,20.27
2019-04-04T05:37:48.720Z,19.50
2019-04-04T05:40:53.260Z,19.00
2019-04-04T05:43:55.906Z,19.23
2019-04-04T05:46:57.817Z,17.43
2019-04-04T05:49:59.785Z,18.10
2019-04-04T05:53:02.117Z,17.00
2019-04-04T05:56:06.419Z,17.83
2019-04-04T05:59:09.041Z,16.33
2019-04-04T06:02:11.418Z,17.23
2019-04-04T06:05:14.111Z,17.47
2019-04-04T06:08:16.095Z,15.87
2019-04-04T06:11:20.847Z,15.77
2019-04-04T06:14:22.004Z,15.40
2019-04-04T06:17:26.924Z,15.00
2019-04-04T06:20:27.841Z,14.23
2019-04-04T06:23:29.915Z,15.90
2019-04-04T06:26:32.003Z,16.43
2019-04-04T06:29:33.983Z,15.67
2019-04-04T06:32:38.707Z,13.70
2019-04-04T06:35:40.127Z,13.77
2019-04-04T06:38:42.396Z,14.30
2019-04-04T06:41:44.376Z,13.40
2019-04-04T06:44:48.041Z,12.77
2019-04-04T06:47:50.044Z,11.93
2019-04-04T06:50:52.009Z,14.60
2019-04-04T06:53:54.554Z,13.30
2019-04-04T06:56:59.062Z,14.13
2019-04-04T07:00:00.664Z,14.13
2019-04-04T07:03:02.658Z,13.27
2019-04-04T07:06:04.633Z,13.93
2019-04-04T07:09:06.851Z,12.30
2019-04-04T07:12:20.336Z,14.23
2019-04-04T07:15:15.723Z,13.83
2019-04-04T07:18:16.755Z,11.80
2019-04-04T07:21:20.192Z,13.87
2019-04-04T07:24:22.705Z,12.87
2019-04-04T07:27:24.727Z,10.80
2019-04-04T07:30:28.424Z,12.07
2019-04-04T07:33:30.661Z,11.43
2019-04-04T07:36:32.652Z,11.73
2019-04-04T07:39:34.587Z,12.13
2019-04-04T07:42:36.511Z,12.93
2019-04-04T07:45:38.479Z,12.17
2019-04-04T07:48:40.469Z,12.30
2019-04-04T07:51:42.432Z,11.97
2019-04-04T07:54:44.489Z,12.17
2019-04-04T07:57:46.430Z,11.23
2019-04-04T08:00:48.954Z,13.17
2019-04-04T08:03:50.994Z,14.07
2019-04-04T08:06:52.913Z,11.67
2019-04-04T08:09:54.964Z,13.40
2019-04-04T08:12:56.974Z,14.00
2019-04-04T08:15:58.919Z,11.83
2019-04-04T08:19:00.878Z,13.87
2019-04-04T08:22:02.978Z,11.83
2019-04-04T08:25:05.259Z,11.70
2019-04-04T08:28:07.192Z,13.80
2019-04-04T08:31:09.928Z,14.13
2019-04-04T08:34:12.276Z,12.77
2019-04-04T08:37:14.252Z,12.93
2019-04-04T08:40:16.227Z,11.47
2019-04-04T08:43:18.275Z,12.43
2019-04-04T08:46:20.348Z,11.40
2019-04-04T08:49:22.479Z,11.43
2019-04-04T08:52:24.390Z,11.73
2019-04-04T08:55:26.481Z,12.90
2019-04-04T08:58:28.391Z,10.67
2019-04-04T09:01:30.757Z,12.20
2019-04-04T09:04:32.727Z,11.37
2019-04-04T09:07:34.714Z,10.50
2019-04-04T09:10:36.741Z,11.90
2019-04-04T09:13:38.750Z,11.50
2019-04-04T09:16:41.733Z,10.97
2019-04-04T09:19:43.733Z,10.70
2019-04-04T09:22:45.668Z,10.67
2019-04-04T09:25:47.806Z,9.97
2019-04-04T09:28:49.797Z,10.40
2019-04-04T09:31:51.677Z,10.03
2019-04-04T09:34:53.681Z,11.60
2019-04-04T09:37:55.636Z,10.13
2019-04-04T09:40:57.672Z,12.27
2019-04-04T09:43:59.674Z,10.10
2019-04-04T09:47:05.721Z,10.80
2019-04-04T09:50:06.783Z,10.80
2019-04-04T09:53:08.748Z,11.40
2019-04-04T09:56:12.011Z,11.17
2019-04-04T09:59:15.067Z,8.87
2019-04-04T10:02:19.924Z,8.73
2019-04-04T10:05:21.884Z,9.73
2019-04-04T10:08:23.917Z,9.37
2019-04-04T10:11:25.880Z,10.50
2019-04-04T10:14:27.809Z,9.83
2019-04-04T10:17:29.764Z,10.57
2019-04-04T10:20:31.747Z,9.07
2019-04-04T10:23:33.709Z,9.17
2019-04-04T10:26:35.846Z,9.23
2019-04-04T10:29:37.877Z,8.07
2019-04-04T10:32:39.895Z,8.93
2019-04-04T10:35:41.906Z,8.27
2019-04-04T10:38:43.860Z,9.67
2019-04-04T10:41:45.752Z,8.53
2019-04-04T10:44:47.779Z,9.60
2019-04-04T10:47:49.713Z,7.50
2019-04-04T10:50:51.723Z,9.27
2019-04-04T10:53:53.677Z,8.23
2019-04-04T10:56:55.719Z,8.50
2019-04-04T10:59:57.681Z,8.50
2019-04-04T11:02:59.913Z,9.27
2019-04-04T11:06:01.802Z,6.97
2019-04-04T11:09:06.434Z,7.90
2019-04-04T11:12:08.407Z,8.73
2019-04-04T11:15:10.364Z,7.43
2019-04-04T11:18:12.312Z,7.60
2019-04-04T11:21:14.556Z,7.27
2019-04-04T11:24:16.746Z,7.20
2019-04-04T11:27:18.895Z,7.33
2019-04-04T11:30:20.947Z,7.63
2019-04-04T11:33:22.894Z,10.27
2019-04-04T11:36:24.894Z,7.97
2019-04-04T11:39:26.850Z,7.67
2019-04-04T11:42:28.870Z,7.47
2019-04-04T11:45:30.850Z,7.60
2019-04-04T11:48:32.890Z,8.10
2019-04-04T11:51:34.816Z,7.80
2019-04-04T11:54:38.688Z,7.43
2019-04-04T11:57:40.730Z,7.47
2019-04-04T12:00:44.566Z,8.17
2019-04-04T12:03:47.179Z,7.10
2019-04-04T12:06:49.184Z,7.83
2019-04-04T12:09:51.110Z,9.17
2019-04-04T12:12:53.055Z,7.50
2019-04-04T12:15:54.957Z,7.27
2019-04-04T12:18:57.011Z,7.23
2019-04-04T12:21:58.914Z,7.90
2019-04-04T12:25:01.479Z,7.97
2019-04-04T12:28:03.630Z,7.30
2019-04-04T12:31:05.650Z,7.73
2019-04-04T12:34:07.605Z,8.27
2019-04-04T12:37:09.563Z,7.40
2019-04-04T12:40:20.403Z,7.40
2019-04-04T12:43:15.554Z,8.07
2019-04-04T12:46:17.534Z,7.40
2019-04-04T12:49:19.500Z,7.43
2019-04-04T12:52:21.728Z,6.93
2019-04-04T12:55:23.727Z,7.97
2019-04-04T12:58:25.771Z,8.00
2019-04-04T13:01:27.761Z,6.97
2019-04-04T13:04:31.871Z,7.87
2019-04-04T13:07:33.562Z,6.00
2019-04-04T13:10:35.565Z,7.10
2019-04-04T13:13:38.338Z,7.00
2019-04-04T13:16:40.950Z,7.53
2019-04-04T13:19:42.864Z,7.87
2019-04-04T13:22:46.153Z,6.80
2019-04-04T13:25:48.125Z,6.67
2019-04-04T13:28:50.263Z,7.97
2019-04-04T13:31:52.253Z,7.00
2019-04-04T13:34:59.492Z,8.10
2019-04-04T13:37:58.172Z,7.77
2019-04-04T13:41:00.141Z,7.70
2019-04-04T13:44:02.118Z,9.37
2019-04-04T13:47:04.343Z,7.87
2019-04-04T13:50:08.095Z,8.23
2019-04-04T13:53:10.169Z,9.17
2019-04-04T13:56:12.171Z,6.53
2019-04-04T13:59:14.198Z,7.20
2019-04-04T14:02:16.180Z,7.00
2019-04-04T14:05:18.168Z,6.93
2019-04-04T14:08:20.155Z,6.83
2019-04-04T14:11:22.171Z,7.37
2019-04-04T14:14:24.127Z,6.97
2019-04-04T14:17:26.813Z,7.60
2019-04-04T14:20:28.774Z,6.90
2019-04-04T14:23:30.775Z,7.50
2019-04-04T14:26:32.743Z,9.00
2019-04-04T14:29:36.252Z,6.67
2019-04-04T14:32:38.251Z,7.17
2019-04-04T14:35:40.504Z,7.13
2019-04-04T14:38:42.577Z,8.60
2019-04-04T14:41:44.530Z,6.80
2019-04-04T14:44:46.536Z,7.97
2019-04-04T14:47:48.536Z,6.67
2019-04-04T14:50:50.507Z,8.33
2019-04-04T14:53:52.530Z,7.63
2019-04-04T14:56:54.449Z,7.27
2019-04-04T14:59:56.540Z,7.87
2019-04-04T15:02:58.436Z,8.47
2019-04-04T15:06:00.463Z,7.80
2019-04-04T15:09:04.775Z,7.53
2019-04-04T15:12:07.030Z,8.47
2019-04-04T15:15:08.996Z,7.20
2019-04-04T15:18:11.030Z,8.37
2019-04-04T15:21:13.974Z,7.93
2019-04-04T15:24:16.084Z,9.70
2019-04-04T15:27:18.115Z,7.70
2019-04-04T15:30:20.883Z,8.40
2019-04-04T15:33:22.830Z,8.70
2019-04-04T15:36:24.850Z,9.20
2019-04-04T15:39:26.832Z,9.10
2019-04-04T15:42:28.887Z,9.07
2019-04-04T15:45:30.839Z,8.83
2019-04-04T15:48:32.873Z,10.67
2019-04-04T15:51:34.857Z,8.97
2019-04-04T15:54:36.899Z,9.47
2019-04-04T15:57:38.851Z,7.80
2019-04-04T16:00:40.939Z,9.43
2019-04-04T16:03:42.849Z,9.30
2019-04-04T16:06:44.829Z,8.30
2019-04-04T16:09:46.755Z,8.93
2019-04-04T16:12:48.768Z,8.47
2019-04-04T16:15:50.727Z,8.97
2019-04-04T16:18:52.728Z,8.93
2019-04-04T16:21:54.642Z,8.90
2019-04-04T16:24:56.654Z,8.83
2019-04-04T16:27:58.598Z,9.63
2019-04-04T16:31:00.812Z,9.63
2019-04-04T16:34:02.733Z,8.60
2019-04-04T16:37:04.770Z,8.57
2019-04-04T16:40:09.289Z,8.93
2019-04-04T16:43:11.767Z,9.73
2019-04-04T16:46:13.695Z,8.70
2019-04-04T16:49:15.689Z,9.77
2019-04-04T16:52:17.631Z,9.57
2019-04-04T16:55:19.644Z,10.80
2019-04-04T16:58:21.572Z,9.20
2019-04-04T17:01:23.610Z,9.70
2019-04-04T17:04:25.641Z,9.17
2019-04-04T17:07:27.611Z,10.97
2019-04-04T17:10:31.518Z,10.03
2019-04-04T17:13:33.484Z,9.60
2019-04-04T17:16:35.464Z,11.83
2019-04-04T17:19:37.444Z,9.70
2019-04-04T17:22:41.183Z,10.70
2019-04-04T17:25:43.519Z,11.77
2019-04-04T17:28:45.766Z,10.10
2019-04-04T17:31:50.284Z,10.43
2019-04-04T17:34:52.613Z,11.00
2019-04-04T17:37:54.609Z,11.37
2019-04-04T17:40:56.971Z,12.10
2019-04-04T17:43:59.101Z,12.10
2019-04-04T17:47:02.126Z,14.20
2019-04-04T17:50:08.955Z,14.80
2019-04-04T17:53:10.994Z,15.70
2019-04-04T17:56:13.357Z,16.13
2019-04-04T17:59:16.838Z,17.13
2019-04-04T18:02:18.983Z,16.97
2019-04-04T18:05:22.536Z,15.67
2019-04-04T18:08:25.899Z,15.47
2019-04-04T18:11:27.859Z,14.67
2019-04-04T18:14:33.802Z,12.70
2019-04-04T18:17:37.182Z,12.90
2019-04-04T18:20:41.382Z,12.20
2019-04-04T18:23:43.377Z,11.93
2019-04-04T18:26:46.434Z,11.73
2019-04-04T18:29:48.654Z,11.70
2019-04-04T18:32:53.342Z,12.27
2019-04-04T18:35:55.828Z,12.43
2019-04-04T18:38:57.803Z,13.07
2019-04-04T18:41:59.786Z,13.30
2019-04-04T18:45:06.118Z,12.57
2019-04-04T18:48:09.910Z,13.23
2019-04-04T18:51:12.784Z,12.70
2019-04-04T18:54:14.750Z,13.43
2019-04-04T18:57:17.324Z,17.33
2019-04-04T19:00:22.990Z,16.67
2019-04-04T19:03:29.577Z,18.57
2019-04-04T19:06:31.426Z,18.90
2019-04-04T19:09:33.783Z,16.80
2019-04-04T19:12:40.679Z,15.77
2019-04-04T19:15:44.633Z,13.93
2019-04-04T19:18:48.941Z,14.43
2019-04-04T19:21:52.814Z,14.73
2019-04-04T19:24:56.953Z,12.70
2019-04-04T19:28:01.931Z,14.47
2019-04-04T19:31:05.951Z,14.43
2019-04-04T19:34:08.411Z,13.93
2019-04-04T19:37:10.432Z,14.23
2019-04-04T19:40:13.915Z,16.33
2019-04-04T19:43:18.155Z,15.50
2019-04-04T19:46:19.866Z,15.40
2019-04-04T19:49:22.399Z,15.73
2019-04-04T19:52:24.961Z,15.73
2019-04-04T19:55:27.050Z,14.27
2019-04-04T19:58:29.432Z,14.67
2019-04-04T20:01:31.531Z,14.77
2019-04-04T20:04:37.024Z,14.50
2019-04-04T20:07:40.122Z,13.90
2019-04-04T20:10:43.373Z,13.13
2019-04-04T20:13:45.348Z,12.87
2019-04-04T20:16:47.906Z,15.13
2019-04-04T20:19:49.874Z,13.80
2019-04-04T20:22:51.826Z,12.83
2019-04-04T20:25:54.358Z,14.00
2019-04-04T20:28:56.313Z,13.50
2019-04-04T20:31:58.320Z,12.97
2019-04-04T20:35:00.411Z,13.23
2019-04-04T20:38:04.097Z,15.00
2019-04-04T20:41:07.887Z,15.30
2019-04-04T20:44:09.865Z,16.53
2019-04-04T20:47:11.895Z,14.70
2019-04-04T20:50:13.789Z,15.53
2019-04-04T20:53:15.760Z,15.73
2019-04-04T20:56:17.735Z,18.17
2019-04-04T20:59:19.740Z,17.10
2019-04-04T21:02:21.643Z,16.80
2019-04-04T21:05:23.787Z,18.07
2019-04-04T21:08:25.779Z,16.80
2019-04-04T21:11:28.710Z,18.60
2019-04-04T21:14:30.644Z,16.87
2019-04-04T21:17:32.666Z,17.27
2019-04-04T21:20:34.579Z,17.67
2019-04-04T21:23:36.602Z,18.33
2019-04-04T21:26:39.627Z,17.60
2019-04-04T21:29:41.678Z,18.67
2019-04-04T21:32:43.575Z,18.07
2019-04-04T21:35:45.716Z,18.33
2019-04-04T21:38:47.652Z,18.93
2019-04-04T21:41:50.984Z,18.30
2019-04-04T21:44:53.006Z,18.13
2019-04-04T21:47:55.031Z,18.67
2019-04-04T21:50:56.960Z,20.60
2019-04-04T21:53:58.882Z,18.63
2019-04-04T21:57:00.794Z,18.63
2019-04-04T22:00:06.195Z,17.53
2019-04-04T22:03:09.954Z,19.80
2019-04-04T22:06:11.979Z,18.60
2019-04-04T22:09:15.711Z,19.90
2019-04-04T22:12:17.808Z,19.07
2019-04-04T22:15:19.795Z,19.47
2019-04-04T22:18:21.832Z,17.80
2019-04-04T22:21:23.782Z,19.47
2019-04-04T22:24:25.750Z,19.93
2019-04-04T22:27:27.739Z,19.53
2019-04-04T22:30:29.746Z,19.43
2019-04-04T22:33:31.707Z,19.90
2019-04-04T22:36:33.859Z,20.80
2019-04-04T22:39:35.834Z,21.80
2019-04-04T22:42:37.871Z,22.73
2019-04-04T22:45:39.910Z,22.17
2019-04-04T22:48:41.931Z,23.47
2019-04-04T22:51:43.866Z,23.00
2019-04-04T22:54:45.911Z,24.07
2019-04-04T22:57:47.831Z,23.37
2019-04-04T23:00:49.878Z,22.07
2019-04-04T23:03:51.792Z,23.20
2019-04-04T23:06:53.904Z,23.80
2019-04-04T23:09:55.821Z,23.77
2019-04-04T23:12:57.747Z,23.03
2019-04-04T23:15:59.713Z,27.73
2019-04-04T23:19:01.722Z,25.17
2019-04-04T23:22:03.679Z,23.23
2019-04-04T23:25:08.761Z,23.70
2019-04-04T23:28:11.618Z,23.93
2019-04-04T23:31:13.633Z,23.57
2019-04-04T23:34:15.555Z,25.03
2019-04-04T23:37:17.761Z,23.77
2019-04-04T23:40:19.666Z,22.33
2019-04-04T23:43:21.672Z,23.93
2019-04-04T23:46:23.627Z,25.00
2019-04-04T23:49:25.591Z,23.57
2019-04-04T23:52:27.642Z,25.83
2019-04-04T23:55:29.636Z,23.77
2019-04-04T23:58:31.556Z,24.67
